sensor_id;sensor_type;location;lat;lon;timestamp;P1;durP1;ratioP1;P2;durP2;ratioP2
61358;SDS011;47228;46.762;23.598;2022-08-25T00:00:21;12.50;;;5.00;;
61358;SDS011;47228;46.762;23.598;2022-08-25T00:05:33;11.60;;;5.20;;
61358;SDS011;47228;46.762;23.598;2022-08-25T00:08:02;13.70;;;5.10;;
61358;SDS011;47228;46.762;23.598;2022-08-25T00:10:34;9.60;;;4.20;;
61358;SDS011;47228;46.762;23.598;2022-08-25T00:13:05;8.60;;;4.80;;
61358;SDS011;47228;46.762;23.598;2022-08-25T00:15:34;10.60;;;5.00;;
61358;SDS011;47228;46.762;23.598;2022-08-25T00:18:02;12.80;;;5.20;;
61358;SDS011;47228;46.762;23.598;2022-08-25T00:20:43;16.30;;;4.90;;
61358;SDS011;47228;46.762;23.598;2022-08-25T00:23:16;10.70;;;4.90;;
61358;SDS011;47228;46.762;23.598;2022-08-25T00:25:45;15.90;;;5.40;;
61358;SDS011;47228;46.762;23.598;2022-08-25T00:28:14;11.20;;;5.00;;
61358;SDS011;47228;46.762;23.598;2022-08-25T00:30:43;13.40;;;5.50;;
61358;SDS011;47228;46.762;23.598;2022-08-25T00:33:12;8.70;;;4.50;;
61358;SDS011;47228;46.762;23.598;2022-08-25T00:35:41;11.10;;;4.70;;
61358;SDS011;47228;46.762;23.598;2022-08-25T00:38:10;11.70;;;4.40;;
61358;SDS011;47228;46.762;23.598;2022-08-25T00:40:40;11.80;;;5.30;;
61358;SDS011;47228;46.762;23.598;2022-08-25T00:43:09;10.80;;;5.40;;
61358;SDS011;47228;46.762;23.598;2022-08-25T00:45:38;10.60;;;5.00;;
61358;SDS011;47228;46.762;23.598;2022-08-25T00:48:07;11.80;;;5.10;;
61358;SDS011;47228;46.762;23.598;2022-08-25T00:50:35;11.40;;;4.50;;
61358;SDS011;47228;46.762;23.598;2022-08-25T00:53:03;10.70;;;4.90;;
61358;SDS011;47228;46.762;23.598;2022-08-25T00:55:34;7.70;;;4.50;;
61358;SDS011;47228;46.762;23.598;2022-08-25T00:58:07;14.60;;;5.30;;
61358;SDS011;47228;46.762;23.598;2022-08-25T01:00:45;12.90;;;4.60;;
61358;SDS011;47228;46.762;23.598;2022-08-25T01:03:17;12.60;;;4.60;;
61358;SDS011;47228;46.762;23.598;2022-08-25T01:05:46;11.10;;;5.00;;
61358;SDS011;47228;46.762;23.598;2022-08-25T01:08:15;12.00;;;5.40;;
61358;SDS011;47228;46.762;23.598;2022-08-25T01:10:48;13.10;;;4.50;;
61358;SDS011;47228;46.762;23.598;2022-08-25T01:13:19;11.70;;;5.40;;
61358;SDS011;47228;46.762;23.598;2022-08-25T01:15:53;11.00;;;4.80;;
61358;SDS011;47228;46.762;23.598;2022-08-25T01:18:24;11.90;;;5.00;;
61358;SDS011;47228;46.762;23.598;2022-08-25T01:20:55;14.40;;;4.90;;
61358;SDS011;47228;46.762;23.598;2022-08-25T01:23:25;11.00;;;5.20;;
61358;SDS011;47228;46.762;23.598;2022-08-25T01:26:04;11.60;;;4.80;;
61358;SDS011;47228;46.762;23.598;2022-08-25T01:28:41;13.00;;;4.40;;
61358;SDS011;47228;46.762;23.598;2022-08-25T01:31:32;10.80;;;4.40;;
61358;SDS011;47228;46.762;23.598;2022-08-25T01:34:01;9.80;;;4.90;;
61358;SDS011;47228;46.762;23.598;2022-08-25T01:36:31;14.60;;;4.90;;
61358;SDS011;47228;46.762;23.598;2022-08-25T01:39:01;12.40;;;4.60;;
61358;SDS011;47228;46.762;23.598;2022-08-25T01:44:08;9.70;;;4.60;;
61358;SDS011;47228;46.762;23.598;2022-08-25T01:46:43;10.40;;;5.20;;
61358;SDS011;47228;46.762;23.598;2022-08-25T01:49:11;12.80;;;6.30;;
61358;SDS011;47228;46.762;23.598;2022-08-25T01:51:46;9.70;;;4.40;;
61358;SDS011;47228;46.762;23.598;2022-08-25T01:54:19;12.50;;;4.40;;
61358;SDS011;47228;46.762;23.598;2022-08-25T01:56:47;11.00;;;4.80;;
61358;SDS011;47228;46.762;23.598;2022-08-25T01:59:16;11.00;;;5.20;;
61358;SDS011;47228;46.762;23.598;2022-08-25T02:01:51;11.20;;;4.50;;
61358;SDS011;47228;46.762;23.598;2022-08-25T02:04:27;11.70;;;4.70;;
61358;SDS011;47228;46.762;23.598;2022-08-25T02:06:59;14.40;;;4.60;;
61358;SDS011;47228;46.762;23.598;2022-08-25T02:09:29;9.40;;;4.30;;
61358;SDS011;47228;46.762;23.598;2022-08-25T02:11:58;9.50;;;4.80;;
61358;SDS011;47228;46.762;23.598;2022-08-25T02:14:26;11.50;;;4.80;;
61358;SDS011;47228;46.762;23.598;2022-08-25T02:16:55;10.10;;;4.80;;
61358;SDS011;47228;46.762;23.598;2022-08-25T02:19:24;11.90;;;5.50;;
61358;SDS011;47228;46.762;23.598;2022-08-25T02:21:53;7.30;;;3.80;;
61358;SDS011;47228;46.762;23.598;2022-08-25T02:24:21;11.60;;;4.30;;
61358;SDS011;47228;46.762;23.598;2022-08-25T02:26:49;9.60;;;4.80;;
61358;SDS011;47228;46.762;23.598;2022-08-25T02:29:17;12.90;;;5.00;;
61358;SDS011;47228;46.762;23.598;2022-08-25T02:31:45;9.00;;;4.80;;
61358;SDS011;47228;46.762;23.598;2022-08-25T02:34:13;13.10;;;5.00;;
61358;SDS011;47228;46.762;23.598;2022-08-25T02:36:42;17.50;;;4.60;;
61358;SDS011;47228;46.762;23.598;2022-08-25T02:39:10;10.60;;;4.90;;
61358;SDS011;47228;46.762;23.598;2022-08-25T02:41:39;11.40;;;4.40;;
61358;SDS011;47228;46.762;23.598;2022-08-25T02:44:08;11.00;;;5.30;;
61358;SDS011;47228;46.762;23.598;2022-08-25T02:46:36;15.90;;;5.70;;
61358;SDS011;47228;46.762;23.598;2022-08-25T02:49:06;10.40;;;4.50;;
61358;SDS011;47228;46.762;23.598;2022-08-25T02:51:34;8.20;;;4.40;;
61358;SDS011;47228;46.762;23.598;2022-08-25T02:54:03;8.00;;;4.50;;
61358;SDS011;47228;46.762;23.598;2022-08-25T02:56:32;14.00;;;5.10;;
61358;SDS011;47228;46.762;23.598;2022-08-25T02:59:01;9.60;;;5.00;;
61358;SDS011;47228;46.762;23.598;2022-08-25T03:01:30;9.10;;;4.30;;
61358;SDS011;47228;46.762;23.598;2022-08-25T03:03:59;8.10;;;4.10;;
61358;SDS011;47228;46.762;23.598;2022-08-25T03:06:29;14.40;;;5.00;;
61358;SDS011;47228;46.762;23.598;2022-08-25T03:08:57;11.00;;;4.60;;
61358;SDS011;47228;46.762;23.598;2022-08-25T03:11:25;14.30;;;5.20;;
61358;SDS011;47228;46.762;23.598;2022-08-25T03:13:54;8.90;;;4.10;;
61358;SDS011;47228;46.762;23.598;2022-08-25T03:16:23;11.20;;;4.20;;
61358;SDS011;47228;46.762;23.598;2022-08-25T03:18:55;9.60;;;4.40;;
61358;SDS011;47228;46.762;23.598;2022-08-25T03:21:24;12.20;;;4.80;;
61358;SDS011;47228;46.762;23.598;2022-08-25T03:23:53;10.50;;;4.70;;
61358;SDS011;47228;46.762;23.598;2022-08-25T03:26:21;10.50;;;4.70;;
61358;SDS011;47228;46.762;23.598;2022-08-25T03:29:08;7.40;;;4.00;;
61358;SDS011;47228;46.762;23.598;2022-08-25T03:31:37;9.90;;;4.80;;
61358;SDS011;47228;46.762;23.598;2022-08-25T03:34:05;9.60;;;4.70;;
61358;SDS011;47228;46.762;23.598;2022-08-25T03:36:34;13.30;;;4.90;;
61358;SDS011;47228;46.762;23.598;2022-08-25T03:39:02;13.30;;;5.90;;
61358;SDS011;47228;46.762;23.598;2022-08-25T03:41:31;10.00;;;4.20;;
61358;SDS011;47228;46.762;23.598;2022-08-25T03:44:00;12.30;;;4.90;;
61358;SDS011;47228;46.762;23.598;2022-08-25T03:46:33;12.20;;;5.00;;
61358;SDS011;47228;46.762;23.598;2022-08-25T03:49:06;10.50;;;4.50;;
61358;SDS011;47228;46.762;23.598;2022-08-25T03:51:38;11.40;;;4.60;;
61358;SDS011;47228;46.762;23.598;2022-08-25T03:54:09;8.50;;;4.50;;
61358;SDS011;47228;46.762;23.598;2022-08-25T03:56:38;10.50;;;4.10;;
61358;SDS011;47228;46.762;23.598;2022-08-25T03:59:07;9.40;;;4.90;;
61358;SDS011;47228;46.762;23.598;2022-08-25T04:01:37;14.00;;;4.80;;
61358;SDS011;47228;46.762;23.598;2022-08-25T04:04:10;7.40;;;4.60;;
61358;SDS011;47228;46.762;23.598;2022-08-25T04:06:40;9.60;;;4.00;;
61358;SDS011;47228;46.762;23.598;2022-08-25T04:09:10;8.60;;;4.00;;
61358;SDS011;47228;46.762;23.598;2022-08-25T04:11:39;12.40;;;4.70;;
61358;SDS011;47228;46.762;23.598;2022-08-25T04:14:09;9.10;;;4.40;;
61358;SDS011;47228;46.762;23.598;2022-08-25T04:19:12;8.80;;;4.30;;
61358;SDS011;47228;46.762;23.598;2022-08-25T04:21:40;14.50;;;4.30;;
61358;SDS011;47228;46.762;23.598;2022-08-25T04:24:09;12.80;;;4.90;;
61358;SDS011;47228;46.762;23.598;2022-08-25T04:26:40;9.70;;;4.70;;
61358;SDS011;47228;46.762;23.598;2022-08-25T04:29:14;15.70;;;5.10;;
61358;SDS011;47228;46.762;23.598;2022-08-25T04:31:46;13.50;;;4.90;;
61358;SDS011;47228;46.762;23.598;2022-08-25T04:34:17;13.30;;;4.80;;
61358;SDS011;47228;46.762;23.598;2022-08-25T04:36:59;9.30;;;4.60;;
61358;SDS011;47228;46.762;23.598;2022-08-25T04:39:29;11.80;;;5.00;;
61358;SDS011;47228;46.762;23.598;2022-08-25T04:41:57;7.70;;;4.30;;
61358;SDS011;47228;46.762;23.598;2022-08-25T04:44:28;9.10;;;3.90;;
61358;SDS011;47228;46.762;23.598;2022-08-25T04:46:58;9.10;;;3.90;;
61358;SDS011;47228;46.762;23.598;2022-08-25T04:49:27;14.30;;;5.10;;
61358;SDS011;47228;46.762;23.598;2022-08-25T04:51:55;8.50;;;4.50;;
61358;SDS011;47228;46.762;23.598;2022-08-25T04:54:24;12.20;;;4.80;;
61358;SDS011;47228;46.762;23.598;2022-08-25T04:56:54;8.80;;;4.50;;
61358;SDS011;47228;46.762;23.598;2022-08-25T04:59:25;11.10;;;4.50;;
61358;SDS011;47228;46.762;23.598;2022-08-25T05:01:58;10.60;;;4.50;;
61358;SDS011;47228;46.762;23.598;2022-08-25T05:04:29;10.40;;;4.80;;
61358;SDS011;47228;46.762;23.598;2022-08-25T05:06:59;9.50;;;4.30;;
61358;SDS011;47228;46.762;23.598;2022-08-25T05:09:29;12.70;;;4.50;;
61358;SDS011;47228;46.762;23.598;2022-08-25T05:12:00;12.70;;;4.40;;
61358;SDS011;47228;46.762;23.598;2022-08-25T05:14:30;13.60;;;4.70;;
61358;SDS011;47228;46.762;23.598;2022-08-25T05:16:59;17.40;;;5.60;;
61358;SDS011;47228;46.762;23.598;2022-08-25T05:19:28;11.80;;;4.50;;
61358;SDS011;47228;46.762;23.598;2022-08-25T05:21:56;13.00;;;5.00;;
61358;SDS011;47228;46.762;23.598;2022-08-25T05:24:24;8.60;;;4.60;;
61358;SDS011;47228;46.762;23.598;2022-08-25T05:26:55;12.10;;;4.70;;
61358;SDS011;47228;46.762;23.598;2022-08-25T05:29:24;12.70;;;4.80;;
61358;SDS011;47228;46.762;23.598;2022-08-25T05:31:52;15.30;;;5.20;;
61358;SDS011;47228;46.762;23.598;2022-08-25T05:34:21;13.40;;;4.40;;
61358;SDS011;47228;46.762;23.598;2022-08-25T05:36:49;10.30;;;4.20;;
61358;SDS011;47228;46.762;23.598;2022-08-25T05:39:18;12.30;;;4.80;;
61358;SDS011;47228;46.762;23.598;2022-08-25T05:41:46;12.20;;;4.90;;
61358;SDS011;47228;46.762;23.598;2022-08-25T05:44:14;7.70;;;4.10;;
61358;SDS011;47228;46.762;23.598;2022-08-25T05:46:48;12.30;;;4.50;;
61358;SDS011;47228;46.762;23.598;2022-08-25T05:49:16;16.80;;;4.60;;
61358;SDS011;47228;46.762;23.598;2022-08-25T05:51:45;13.40;;;4.60;;
61358;SDS011;47228;46.762;23.598;2022-08-25T05:54:13;13.60;;;5.10;;
61358;SDS011;47228;46.762;23.598;2022-08-25T05:56:41;15.00;;;4.20;;
61358;SDS011;47228;46.762;23.598;2022-08-25T05:59:10;10.10;;;4.50;;
61358;SDS011;47228;46.762;23.598;2022-08-25T06:01:38;11.10;;;4.90;;
61358;SDS011;47228;46.762;23.598;2022-08-25T06:04:25;15.80;;;4.60;;
61358;SDS011;47228;46.762;23.598;2022-08-25T06:06:54;9.80;;;4.60;;
61358;SDS011;47228;46.762;23.598;2022-08-25T06:09:22;14.60;;;5.10;;
61358;SDS011;47228;46.762;23.598;2022-08-25T06:11:51;14.50;;;5.00;;
61358;SDS011;47228;46.762;23.598;2022-08-25T06:14:22;11.50;;;4.80;;
61358;SDS011;47228;46.762;23.598;2022-08-25T06:16:51;12.50;;;4.50;;
61358;SDS011;47228;46.762;23.598;2022-08-25T06:19:20;11.00;;;4.10;;
61358;SDS011;47228;46.762;23.598;2022-08-25T06:21:54;14.60;;;5.00;;
61358;SDS011;47228;46.762;23.598;2022-08-25T06:24:26;9.50;;;4.30;;
61358;SDS011;47228;46.762;23.598;2022-08-25T06:26:55;10.10;;;4.60;;
61358;SDS011;47228;46.762;23.598;2022-08-25T06:29:24;13.70;;;5.00;;
61358;SDS011;47228;46.762;23.598;2022-08-25T06:31:54;12.00;;;4.60;;
61358;SDS011;47228;46.762;23.598;2022-08-25T06:34:22;13.50;;;4.40;;
61358;SDS011;47228;46.762;23.598;2022-08-25T06:36:51;8.10;;;4.70;;
61358;SDS011;47228;46.762;23.598;2022-08-25T06:39:19;10.20;;;4.80;;
61358;SDS011;47228;46.762;23.598;2022-08-25T06:41:52;12.30;;;5.00;;
61358;SDS011;47228;46.762;23.598;2022-08-25T06:44:25;11.20;;;4.50;;
61358;SDS011;47228;46.762;23.598;2022-08-25T06:46:56;12.60;;;4.30;;
61358;SDS011;47228;46.762;23.598;2022-08-25T06:49:24;8.00;;;3.70;;
61358;SDS011;47228;46.762;23.598;2022-08-25T06:52:00;9.20;;;4.40;;
61358;SDS011;47228;46.762;23.598;2022-08-25T06:54:29;12.20;;;4.20;;
61358;SDS011;47228;46.762;23.598;2022-08-25T06:56:57;9.30;;;4.10;;
61358;SDS011;47228;46.762;23.598;2022-08-25T06:59:26;7.50;;;4.10;;
61358;SDS011;47228;46.762;23.598;2022-08-25T07:02:00;11.20;;;4.10;;
61358;SDS011;47228;46.762;23.598;2022-08-25T07:04:31;10.40;;;4.50;;
61358;SDS011;47228;46.762;23.598;2022-08-25T07:07:00;10.10;;;4.40;;
61358;SDS011;47228;46.762;23.598;2022-08-25T07:09:29;13.40;;;4.70;;
61358;SDS011;47228;46.762;23.598;2022-08-25T07:11:57;9.60;;;3.90;;
61358;SDS011;47228;46.762;23.598;2022-08-25T07:14:25;13.00;;;4.20;;
61358;SDS011;47228;46.762;23.598;2022-08-25T07:16:53;11.80;;;4.40;;
61358;SDS011;47228;46.762;23.598;2022-08-25T07:19:21;14.20;;;4.50;;
61358;SDS011;47228;46.762;23.598;2022-08-25T07:21:51;14.70;;;4.20;;
61358;SDS011;47228;46.762;23.598;2022-08-25T07:24:20;13.00;;;4.40;;
61358;SDS011;47228;46.762;23.598;2022-08-25T07:26:49;14.10;;;4.70;;
61358;SDS011;47228;46.762;23.598;2022-08-25T07:29:22;12.20;;;4.40;;
61358;SDS011;47228;46.762;23.598;2022-08-25T07:32:01;10.50;;;4.00;;
61358;SDS011;47228;46.762;23.598;2022-08-25T07:34:30;11.90;;;4.90;;
61358;SDS011;47228;46.762;23.598;2022-08-25T07:37:20;21.10;;;4.90;;
61358;SDS011;47228;46.762;23.598;2022-08-25T07:40:10;15.70;;;5.10;;
61358;SDS011;47228;46.762;23.598;2022-08-25T07:42:42;9.90;;;4.60;;
61358;SDS011;47228;46.762;23.598;2022-08-25T07:45:11;13.60;;;4.80;;
61358;SDS011;47228;46.762;23.598;2022-08-25T07:47:47;14.00;;;5.00;;
61358;SDS011;47228;46.762;23.598;2022-08-25T07:50:18;11.40;;;4.30;;
61358;SDS011;47228;46.762;23.598;2022-08-25T07:52:47;13.70;;;4.70;;
61358;SDS011;47228;46.762;23.598;2022-08-25T07:55:22;13.20;;;4.30;;
61358;SDS011;47228;46.762;23.598;2022-08-25T07:57:54;12.80;;;4.80;;
61358;SDS011;47228;46.762;23.598;2022-08-25T08:00:24;13.50;;;4.40;;
61358;SDS011;47228;46.762;23.598;2022-08-25T08:02:59;20.20;;;4.80;;
61358;SDS011;47228;46.762;23.598;2022-08-25T08:05:30;17.90;;;4.80;;
61358;SDS011;47228;46.762;23.598;2022-08-25T08:07:59;17.00;;;4.50;;
61358;SDS011;47228;46.762;23.598;2022-08-25T08:10:27;17.70;;;5.10;;
61358;SDS011;47228;46.762;23.598;2022-08-25T08:13:16;22.40;;;4.90;;
61358;SDS011;47228;46.762;23.598;2022-08-25T08:15:45;26.10;;;5.20;;
61358;SDS011;47228;46.762;23.598;2022-08-25T08:18:14;16.30;;;4.30;;
61358;SDS011;47228;46.762;23.598;2022-08-25T08:20:46;23.40;;;5.20;;
61358;SDS011;47228;46.762;23.598;2022-08-25T08:23:16;29.50;;;5.20;;
61358;SDS011;47228;46.762;23.598;2022-08-25T08:25:44;27.50;;;5.70;;
61358;SDS011;47228;46.762;23.598;2022-08-25T08:28:12;23.30;;;5.00;;
61358;SDS011;47228;46.762;23.598;2022-08-25T08:30:41;27.40;;;5.10;;
61358;SDS011;47228;46.762;23.598;2022-08-25T08:33:21;22.10;;;5.00;;
61358;SDS011;47228;46.762;23.598;2022-08-25T08:35:58;28.20;;;5.00;;
61358;SDS011;47228;46.762;23.598;2022-08-25T08:38:35;29.50;;;5.10;;
61358;SDS011;47228;46.762;23.598;2022-08-25T08:52:32;20.30;;;5.80;;
61358;SDS011;47228;46.762;23.598;2022-08-25T08:55:04;19.90;;;4.50;;
61358;SDS011;47228;46.762;23.598;2022-08-25T08:57:44;28.40;;;5.30;;
61358;SDS011;47228;46.762;23.598;2022-08-25T09:00:16;22.60;;;5.10;;
61358;SDS011;47228;46.762;23.598;2022-08-25T09:02:50;23.90;;;4.80;;
61358;SDS011;47228;46.762;23.598;2022-08-25T09:05:26;24.60;;;4.40;;
61358;SDS011;47228;46.762;23.598;2022-08-25T09:07:57;20.20;;;4.20;;
61358;SDS011;47228;46.762;23.598;2022-08-25T09:13:30;27.00;;;4.70;;
61358;SDS011;47228;46.762;23.598;2022-08-25T09:22:14;17.10;;;3.80;;
61358;SDS011;47228;46.762;23.598;2022-08-25T09:30:48;21.90;;;4.00;;
61358;SDS011;47228;46.762;23.598;2022-08-25T09:33:22;21.90;;;4.90;;
61358;SDS011;47228;46.762;23.598;2022-08-25T09:35:53;15.90;;;3.80;;
61358;SDS011;47228;46.762;23.598;2022-08-25T09:38:24;23.90;;;4.30;;
61358;SDS011;47228;46.762;23.598;2022-08-25T09:40:55;20.80;;;4.10;;
61358;SDS011;47228;46.762;23.598;2022-08-25T09:46:13;18.80;;;4.00;;
61358;SDS011;47228;46.762;23.598;2022-08-25T09:48:51;21.00;;;4.10;;
61358;SDS011;47228;46.762;23.598;2022-08-25T09:54:03;22.90;;;4.30;;
61358;SDS011;47228;46.762;23.598;2022-08-25T09:59:26;18.70;;;3.80;;
61358;SDS011;47228;46.762;23.598;2022-08-25T10:04:50;17.30;;;4.00;;
61358;SDS011;47228;46.762;23.598;2022-08-25T10:10:01;25.70;;;4.10;;
61358;SDS011;47228;46.762;23.598;2022-08-25T10:12:40;22.40;;;4.50;;
61358;SDS011;47228;46.762;23.598;2022-08-25T10:15:19;18.40;;;4.10;;
61358;SDS011;47228;46.762;23.598;2022-08-25T10:21:06;21.90;;;4.90;;
61358;SDS011;47228;46.762;23.598;2022-08-25T10:23:47;22.60;;;4.00;;
61358;SDS011;47228;46.762;23.598;2022-08-25T10:32:03;16.50;;;3.70;;
61358;SDS011;47228;46.762;23.598;2022-08-25T10:34:49;17.80;;;3.40;;
61358;SDS011;47228;46.762;23.598;2022-08-25T10:46:08;21.00;;;3.50;;
61358;SDS011;47228;46.762;23.598;2022-08-25T10:51:32;18.10;;;3.40;;
61358;SDS011;47228;46.762;23.598;2022-08-25T11:00:07;20.60;;;4.10;;
61358;SDS011;47228;46.762;23.598;2022-08-25T11:11:09;21.10;;;3.60;;
61358;SDS011;47228;46.762;23.598;2022-08-25T11:13:55;13.80;;;3.40;;
61358;SDS011;47228;46.762;23.598;2022-08-25T11:16:32;12.50;;;2.90;;
61358;SDS011;47228;46.762;23.598;2022-08-25T11:19:25;20.10;;;3.70;;
61358;SDS011;47228;46.762;23.598;2022-08-25T11:27:51;17.90;;;4.20;;
61358;SDS011;47228;46.762;23.598;2022-08-25T11:30:26;17.60;;;3.70;;
61358;SDS011;47228;46.762;23.598;2022-08-25T11:32:55;14.60;;;3.10;;
61358;SDS011;47228;46.762;23.598;2022-08-25T11:35:36;15.00;;;3.80;;
61358;SDS011;47228;46.762;23.598;2022-08-25T11:54:34;17.20;;;3.50;;
61358;SDS011;47228;46.762;23.598;2022-08-25T11:57:20;22.90;;;3.80;;
61358;SDS011;47228;46.762;23.598;2022-08-25T12:02:37;15.10;;;3.30;;
61358;SDS011;47228;46.762;23.598;2022-08-25T12:15:55;17.60;;;3.80;;
61358;SDS011;47228;46.762;23.598;2022-08-25T12:41:20;16.30;;;3.60;;
61358;SDS011;47228;46.762;23.598;2022-08-25T12:43:53;20.40;;;3.60;;
61358;SDS011;47228;46.762;23.598;2022-08-25T12:47:05;16.20;;;3.80;;
61358;SDS011;47228;46.762;23.598;2022-08-25T12:49:39;19.50;;;3.70;;
61358;SDS011;47228;46.762;23.598;2022-08-25T12:54:54;21.20;;;3.90;;
61358;SDS011;47228;46.762;23.598;2022-08-25T13:00:26;13.80;;;3.60;;
61358;SDS011;47228;46.762;23.598;2022-08-25T13:09:18;14.30;;;3.70;;
61358;SDS011;47228;46.762;23.598;2022-08-25T13:12:15;21.20;;;3.60;;
61358;SDS011;47228;46.762;23.598;2022-08-25T13:14:52;18.10;;;3.80;;
61358;SDS011;47228;46.762;23.598;2022-08-25T13:17:26;13.50;;;3.80;;
61358;SDS011;47228;46.762;23.598;2022-08-25T13:22:58;17.00;;;3.70;;
61358;SDS011;47228;46.762;23.598;2022-08-25T13:25:30;17.00;;;3.90;;
61358;SDS011;47228;46.762;23.598;2022-08-25T13:28:02;14.30;;;3.90;;
61358;SDS011;47228;46.762;23.598;2022-08-25T13:30:37;17.60;;;3.60;;
61358;SDS011;47228;46.762;23.598;2022-08-25T13:33:17;16.50;;;3.60;;
61358;SDS011;47228;46.762;23.598;2022-08-25T13:35:48;18.20;;;3.50;;
61358;SDS011;47228;46.762;23.598;2022-08-25T13:38:38;19.00;;;3.40;;
61358;SDS011;47228;46.762;23.598;2022-08-25T13:41:16;15.60;;;3.80;;
61358;SDS011;47228;46.762;23.598;2022-08-25T13:43:46;13.80;;;3.70;;
61358;SDS011;47228;46.762;23.598;2022-08-25T13:46:21;16.30;;;3.60;;
61358;SDS011;47228;46.762;23.598;2022-08-25T13:48:49;15.70;;;3.20;;
61358;SDS011;47228;46.762;23.598;2022-08-25T13:51:29;14.00;;;4.00;;
61358;SDS011;47228;46.762;23.598;2022-08-25T13:54:03;17.00;;;4.00;;
61358;SDS011;47228;46.762;23.598;2022-08-25T13:56:34;17.60;;;3.50;;
61358;SDS011;47228;46.762;23.598;2022-08-25T13:59:19;14.70;;;3.70;;
61358;SDS011;47228;46.762;23.598;2022-08-25T14:01:52;16.10;;;3.60;;
61358;SDS011;47228;46.762;23.598;2022-08-25T14:09:48;13.10;;;3.40;;
61358;SDS011;47228;46.762;23.598;2022-08-25T14:12:29;20.20;;;4.00;;
61358;SDS011;47228;46.762;23.598;2022-08-25T14:17:33;35.90;;;4.50;;
61358;SDS011;47228;46.762;23.598;2022-08-25T14:20:23;14.90;;;3.50;;
61358;SDS011;47228;46.762;23.598;2022-08-25T14:23:04;16.10;;;3.40;;
61358;SDS011;47228;46.762;23.598;2022-08-25T14:25:37;17.40;;;4.00;;
61358;SDS011;47228;46.762;23.598;2022-08-25T14:28:10;17.70;;;4.00;;
61358;SDS011;47228;46.762;23.598;2022-08-25T14:30:43;14.30;;;3.50;;
61358;SDS011;47228;46.762;23.598;2022-08-25T14:33:14;15.30;;;3.50;;
61358;SDS011;47228;46.762;23.598;2022-08-25T14:35:47;20.00;;;3.70;;
61358;SDS011;47228;46.762;23.598;2022-08-25T14:38:17;17.60;;;3.50;;
61358;SDS011;47228;46.762;23.598;2022-08-25T14:40:46;14.80;;;3.70;;
61358;SDS011;47228;46.762;23.598;2022-08-25T14:43:16;17.70;;;3.50;;
61358;SDS011;47228;46.762;23.598;2022-08-25T14:45:50;15.80;;;3.70;;
61358;SDS011;47228;46.762;23.598;2022-08-25T14:48:24;14.60;;;3.90;;
61358;SDS011;47228;46.762;23.598;2022-08-25T14:50:58;17.60;;;4.00;;
61358;SDS011;47228;46.762;23.598;2022-08-25T14:53:27;19.40;;;3.70;;
61358;SDS011;47228;46.762;23.598;2022-08-25T14:55:55;21.30;;;3.80;;
61358;SDS011;47228;46.762;23.598;2022-08-25T14:58:26;14.30;;;3.50;;
61358;SDS011;47228;46.762;23.598;2022-08-25T15:01:00;13.50;;;3.20;;
61358;SDS011;47228;46.762;23.598;2022-08-25T15:03:37;10.90;;;3.30;;
61358;SDS011;47228;46.762;23.598;2022-08-25T15:06:14;11.80;;;3.10;;
61358;SDS011;47228;46.762;23.598;2022-08-25T15:08:44;15.30;;;3.10;;
61358;SDS011;47228;46.762;23.598;2022-08-25T15:11:31;15.40;;;3.70;;
61358;SDS011;47228;46.762;23.598;2022-08-25T15:14:01;17.10;;;3.80;;
61358;SDS011;47228;46.762;23.598;2022-08-25T15:16:30;13.00;;;3.30;;
61358;SDS011;47228;46.762;23.598;2022-08-25T15:19:06;17.40;;;3.50;;
61358;SDS011;47228;46.762;23.598;2022-08-25T15:21:36;18.20;;;4.10;;
61358;SDS011;47228;46.762;23.598;2022-08-25T15:24:05;16.40;;;3.80;;
61358;SDS011;47228;46.762;23.598;2022-08-25T15:26:41;15.80;;;3.30;;
61358;SDS011;47228;46.762;23.598;2022-08-25T15:29:22;13.40;;;3.60;;
61358;SDS011;47228;46.762;23.598;2022-08-25T15:31:52;18.90;;;3.80;;
61358;SDS011;47228;46.762;23.598;2022-08-25T15:34:23;17.00;;;3.80;;
61358;SDS011;47228;46.762;23.598;2022-08-25T15:36:51;14.50;;;3.30;;
61358;SDS011;47228;46.762;23.598;2022-08-25T15:39:19;16.50;;;3.70;;
61358;SDS011;47228;46.762;23.598;2022-08-25T15:41:47;16.60;;;3.90;;
61358;SDS011;47228;46.762;23.598;2022-08-25T15:44:19;14.30;;;3.50;;
61358;SDS011;47228;46.762;23.598;2022-08-25T15:46:47;14.20;;;3.30;;
61358;SDS011;47228;46.762;23.598;2022-08-25T15:49:17;15.30;;;3.80;;
61358;SDS011;47228;46.762;23.598;2022-08-25T15:51:53;14.90;;;4.10;;
61358;SDS011;47228;46.762;23.598;2022-08-25T15:54:22;10.90;;;4.00;;
61358;SDS011;47228;46.762;23.598;2022-08-25T15:56:54;14.80;;;3.30;;
61358;SDS011;47228;46.762;23.598;2022-08-25T15:59:24;13.80;;;3.90;;
61358;SDS011;47228;46.762;23.598;2022-08-25T16:01:54;15.10;;;3.70;;
61358;SDS011;47228;46.762;23.598;2022-08-25T16:04:22;28.00;;;5.20;;
61358;SDS011;47228;46.762;23.598;2022-08-25T16:06:53;20.60;;;3.90;;
61358;SDS011;47228;46.762;23.598;2022-08-25T16:09:22;19.20;;;3.70;;
61358;SDS011;47228;46.762;23.598;2022-08-25T16:11:51;20.00;;;4.00;;
61358;SDS011;47228;46.762;23.598;2022-08-25T16:14:24;11.90;;;3.40;;
61358;SDS011;47228;46.762;23.598;2022-08-25T16:16:54;11.20;;;3.70;;
61358;SDS011;47228;46.762;23.598;2022-08-25T16:19:26;15.20;;;4.20;;
61358;SDS011;47228;46.762;23.598;2022-08-25T16:21:56;17.50;;;3.80;;
61358;SDS011;47228;46.762;23.598;2022-08-25T16:24:26;20.10;;;3.90;;
61358;SDS011;47228;46.762;23.598;2022-08-25T16:26:54;13.40;;;3.80;;
61358;SDS011;47228;46.762;23.598;2022-08-25T16:29:39;14.60;;;3.80;;
61358;SDS011;47228;46.762;23.598;2022-08-25T16:32:10;16.80;;;4.20;;
61358;SDS011;47228;46.762;23.598;2022-08-25T16:34:40;14.20;;;4.50;;
61358;SDS011;47228;46.762;23.598;2022-08-25T16:37:11;19.00;;;4.70;;
61358;SDS011;47228;46.762;23.598;2022-08-25T16:39:40;14.20;;;4.30;;
61358;SDS011;47228;46.762;23.598;2022-08-25T16:42:13;21.80;;;4.60;;
61358;SDS011;47228;46.762;23.598;2022-08-25T16:44:41;19.50;;;4.70;;
61358;SDS011;47228;46.762;23.598;2022-08-25T16:47:09;16.50;;;4.50;;
61358;SDS011;47228;46.762;23.598;2022-08-25T16:49:40;14.70;;;4.40;;
61358;SDS011;47228;46.762;23.598;2022-08-25T16:52:10;14.90;;;4.70;;
61358;SDS011;47228;46.762;23.598;2022-08-25T16:54:57;23.40;;;4.80;;
61358;SDS011;47228;46.762;23.598;2022-08-25T16:57:44;18.00;;;4.90;;
61358;SDS011;47228;46.762;23.598;2022-08-25T17:00:18;13.80;;;4.30;;
61358;SDS011;47228;46.762;23.598;2022-08-25T17:02:53;15.60;;;4.50;;
61358;SDS011;47228;46.762;23.598;2022-08-25T17:05:32;16.60;;;4.30;;
61358;SDS011;47228;46.762;23.598;2022-08-25T17:08:05;21.40;;;4.70;;
61358;SDS011;47228;46.762;23.598;2022-08-25T17:10:53;20.20;;;4.30;;
61358;SDS011;47228;46.762;23.598;2022-08-25T17:13:22;21.50;;;4.70;;
61358;SDS011;47228;46.762;23.598;2022-08-25T17:15:50;11.80;;;4.10;;
61358;SDS011;47228;46.762;23.598;2022-08-25T17:18:19;16.60;;;4.10;;
61358;SDS011;47228;46.762;23.598;2022-08-25T17:20:56;18.00;;;4.80;;
61358;SDS011;47228;46.762;23.598;2022-08-25T17:23:30;12.20;;;4.80;;
61358;SDS011;47228;46.762;23.598;2022-08-25T17:26:00;17.70;;;4.70;;
61358;SDS011;47228;46.762;23.598;2022-08-25T17:28:32;18.40;;;4.80;;
61358;SDS011;47228;46.762;23.598;2022-08-25T17:31:01;14.20;;;4.70;;
61358;SDS011;47228;46.762;23.598;2022-08-25T17:33:29;18.20;;;5.30;;
61358;SDS011;47228;46.762;23.598;2022-08-25T17:35:58;18.80;;;5.80;;